sensor_id;sensor_type;location;lat;lon;timestamp;pressure;altitude;pressure_sealevel;temperature;humidity
9672;BME280;4874;43.568;27.824;2023-07-13T00:00:11;99012.06;;;23.44;100.00
9672;BME280;4874;43.568;27.824;2023-07-13T00:02:38;99010.63;;;23.42;100.00
9672;BME280;4874;43.568;27.824;2023-07-13T00:05:06;99005.34;;;23.28;100.00
9672;BME280;4874;43.568;27.824;2023-07-13T00:07:34;99002.94;;;23.39;100.00
9672;BME280;4874;43.568;27.824;2023-07-13T00:10:02;98993.09;;;23.19;100.00
9672;BME280;4874;43.568;27.824;2023-07-13T00:12:32;98994.75;;;23.02;100.00
9672;BME280;4874;43.568;27.824;2023-07-13T00:15:00;98993.19;;;22.88;100.00
9672;BME280;4874;43.568;27.824;2023-07-13T00:17:28;98986.59;;;22.84;100.00
9672;BME280;4874;43.568;27.824;2023-07-13T00:19:56;98983.16;;;22.95;100.00
9672;BME280;4874;43.568;27.824;2023-07-13T00:22:23;98974.22;;;22.95;100.00
9672;BME280;4874;43.568;27.824;2023-07-13T00:24:53;98976.25;;;23.17;100.00
9672;BME280;4874;43.568;27.824;2023-07-13T00:27:23;98974.00;;;22.96;100.00
9672;BME280;4874;43.568;27.824;2023-07-13T00:29:50;98957.28;;;22.81;100.00
9672;BME280;4874;43.568;27.824;2023-07-13T00:32:17;98982.75;;;22.92;100.00
9672;BME280;4874;43.568;27.824;2023-07-13T00:34:43;98978.72;;;22.76;100.00
9672;BME280;4874;43.568;27.824;2023-07-13T00:37:10;98979.66;;;22.88;100.00
9672;BME280;4874;43.568;27.824;2023-07-13T00:39:37;98972.34;;;23.13;100.00
9672;BME280;4874;43.568;27.824;2023-07-13T00:42:05;98968.28;;;22.80;100.00
9672;BME280;4874;43.568;27.824;2023-07-13T00:44:32;98974.59;;;22.98;100.00
9672;BME280;4874;43.568;27.824;2023-07-13T00:47:00;98958.06;;;22.82;100.00
9672;BME280;4874;43.568;27.824;2023-07-13T00:49:29;98934.00;;;22.74;100.00
9672;BME280;4874;43.568;27.824;2023-07-13T00:52:00;98961.13;;;23.10;100.00
9672;BME280;4874;43.568;27.824;2023-07-13T00:54:34;98949.84;;;22.95;100.00
9672;BME280;4874;43.568;27.824;2023-07-13T00:57:05;98945.47;;;22.94;100.00
9672;BME280;4874;43.568;27.824;2023-07-13T00:59:34;98936.69;;;23.16;100.00
9672;BME280;4874;43.568;27.824;2023-07-13T01:02:02;98909.41;;;22.75;100.00
9672;BME280;4874;43.568;27.824;2023-07-13T01:04:30;98949.16;;;22.99;100.00
9672;BME280;4874;43.568;27.824;2023-07-13T01:06:57;98946.97;;;22.90;100.00
9672;BME280;4874;43.568;27.824;2023-07-13T01:09:26;98937.41;;;22.87;100.00
9672;BME280;4874;43.568;27.824;2023-07-13T01:11:53;98943.22;;;22.66;100.00
9672;BME280;4874;43.568;27.824;2023-07-13T01:14:20;98935.53;;;22.88;100.00
9672;BME280;4874;43.568;27.824;2023-07-13T01:16:47;98929.03;;;22.71;100.00
9672;BME280;4874;43.568;27.824;2023-07-13T01:19:25;98935.63;;;22.81;100.00
9672;BME280;4874;43.568;27.824;2023-07-13T01:22:08;98933.59;;;22.95;100.00
9672;BME280;4874;43.568;27.824;2023-07-13T01:24:36;98931.38;;;23.28;100.00
9672;BME280;4874;43.568;27.824;2023-07-13T01:27:04;98934.78;;;22.99;100.00
9672;BME280;4874;43.568;27.824;2023-07-13T01:29:33;98932.22;;;23.04;100.00
9672;BME280;4874;43.568;27.824;2023-07-13T01:32:01;98935.31;;;23.07;100.00
9672;BME280;4874;43.568;27.824;2023-07-13T01:34:27;98892.66;;;23.21;100.00
9672;BME280;4874;43.568;27.824;2023-07-13T01:36:54;98935.44;;;23.37;100.00
9672;BME280;4874;43.568;27.824;2023-07-13T01:39:22;98937.16;;;23.32;100.00
9672;BME280;4874;43.568;27.824;2023-07-13T01:41:49;98926.38;;;23.07;100.00
9672;BME280;4874;43.568;27.824;2023-07-13T01:44:16;98927.50;;;23.54;100.00
9672;BME280;4874;43.568;27.824;2023-07-13T01:46:42;98874.19;;;23.00;100.00
9672;BME280;4874;43.568;27.824;2023-07-13T01:49:09;98914.25;;;23.09;100.00
9672;BME280;4874;43.568;27.824;2023-07-13T01:51:36;98903.47;;;23.27;100.00
9672;BME280;4874;43.568;27.824;2023-07-13T01:54:02;98914.00;;;23.36;100.00
9672;BME280;4874;43.568;27.824;2023-07-13T01:56:29;98915.72;;;23.48;100.00
9672;BME280;4874;43.568;27.824;2023-07-13T01:58:56;98917.34;;;23.13;100.00
9672;BME280;4874;43.568;27.824;2023-07-13T02:01:23;98919.09;;;23.25;100.00
9672;BME280;4874;43.568;27.824;2023-07-13T02:03:50;98915.00;;;23.16;100.00
9672;BME280;4874;43.568;27.824;2023-07-13T02:06:18;98917.13;;;23.14;100.00
9672;BME280;4874;43.568;27.824;2023-07-13T02:08:44;98917.59;;;23.29;100.00
9672;BME280;4874;43.568;27.824;2023-07-13T02:11:11;98917.50;;;23.18;100.00
9672;BME280;4874;43.568;27.824;2023-07-13T02:13:38;98914.97;;;23.41;100.00
9672;BME280;4874;43.568;27.824;2023-07-13T02:16:05;98922.50;;;23.39;100.00
9672;BME280;4874;43.568;27.824;2023-07-13T02:18:33;98914.31;;;23.27;100.00
9672;BME280;4874;43.568;27.824;2023-07-13T02:20:59;98903.81;;;22.95;100.00
9672;BME280;4874;43.568;27.824;2023-07-13T02:23:26;98924.19;;;22.97;100.00
9672;BME280;4874;43.568;27.824;2023-07-13T02:25:57;98915.16;;;23.21;100.00
9672;BME280;4874;43.568;27.824;2023-07-13T02:28:24;98917.88;;;23.21;100.00
9672;BME280;4874;43.568;27.824;2023-07-13T02:30:51;98920.09;;;23.31;100.00
9672;BME280;4874;43.568;27.824;2023-07-13T02:33:17;98840.59;;;22.65;100.00
9672;BME280;4874;43.568;27.824;2023-07-13T02:35:44;98912.16;;;23.29;100.00
9672;BME280;4874;43.568;27.824;2023-07-13T02:38:11;98914.13;;;23.41;100.00
9672;BME280;4874;43.568;27.824;2023-07-13T02:40:38;98911.38;;;23.59;100.00
9672;BME280;4874;43.568;27.824;2023-07-13T02:43:05;98916.66;;;23.54;100.00
9672;BME280;4874;43.568;27.824;2023-07-13T02:45:31;98909.84;;;23.33;100.00
9672;BME280;4874;43.568;27.824;2023-07-13T02:47:58;98871.16;;;22.90;100.00
9672;BME280;4874;43.568;27.824;2023-07-13T02:50:25;98917.25;;;23.19;100.00
9672;BME280;4874;43.568;27.824;2023-07-13T02:52:52;98913.91;;;23.42;100.00
9672;BME280;4874;43.568;27.824;2023-07-13T02:55:19;98918.03;;;23.26;100.00
9672;BME280;4874;43.568;27.824;2023-07-13T02:57:45;98914.22;;;23.64;100.00
9672;BME280;4874;43.568;27.824;2023-07-13T03:00:12;98916.47;;;23.37;100.00
9672;BME280;4874;43.568;27.824;2023-07-13T03:02:39;98928.75;;;22.97;100.00
9672;BME280;4874;43.568;27.824;2023-07-13T03:05:06;98925.16;;;23.21;100.00
9672;BME280;4874;43.568;27.824;2023-07-13T03:07:33;98917.81;;;23.28;100.00
9672;BME280;4874;43.568;27.824;2023-07-13T03:10:00;98925.59;;;23.43;100.00
9672;BME280;4874;43.568;27.824;2023-07-13T03:12:26;98930.25;;;23.36;100.00
9672;BME280;4874;43.568;27.824;2023-07-13T03:14:53;98925.16;;;23.27;100.00
9672;BME280;4874;43.568;27.824;2023-07-13T03:17:20;98923.00;;;23.29;100.00
9672;BME280;4874;43.568;27.824;2023-07-13T03:19:47;98929.28;;;23.05;100.00
9672;BME280;4874;43.568;27.824;2023-07-13T03:22:18;98916.00;;;23.22;100.00
9672;BME280;4874;43.568;27.824;2023-07-13T03:24:45;98933.28;;;23.21;100.00
9672;BME280;4874;43.568;27.824;2023-07-13T03:27:12;98928.56;;;23.16;100.00
9672;BME280;4874;43.568;27.824;2023-07-13T03:29:39;98927.88;;;23.75;100.00
9672;BME280;4874;43.568;27.824;2023-07-13T03:32:06;98943.19;;;23.52;100.00
9672;BME280;4874;43.568;27.824;2023-07-13T03:34:33;98932.06;;;23.71;100.00
9672;BME280;4874;43.568;27.824;2023-07-13T03:37:00;98930.16;;;23.90;100.00
9672;BME280;4874;43.568;27.824;2023-07-13T03:39:26;98938.28;;;23.90;100.00
9672;BME280;4874;43.568;27.824;2023-07-13T03:41:53;98938.81;;;23.69;100.00
9672;BME280;4874;43.568;27.824;2023-07-13T03:44:20;98946.16;;;23.80;100.00
9672;BME280;4874;43.568;27.824;2023-07-13T03:46:47;98939.69;;;23.63;100.00
9672;BME280;4874;43.568;27.824;2023-07-13T03:49:14;98942.31;;;23.40;100.00
9672;BME280;4874;43.568;27.824;2023-07-13T03:51:40;98947.44;;;23.77;100.00
9672;BME280;4874;43.568;27.824;2023-07-13T03:54:07;98906.22;;;23.87;100.00
9672;BME280;4874;43.568;27.824;2023-07-13T03:56:34;98949.25;;;23.95;100.00
9672;BME280;4874;43.568;27.824;2023-07-13T03:59:01;98949.41;;;23.70;100.00
9672;BME280;4874;43.568;27.824;2023-07-13T04:01:28;98954.88;;;23.82;100.00
9672;BME280;4874;43.568;27.824;2023-07-13T04:03:55;98959.88;;;23.96;100.00
9672;BME280;4874;43.568;27.824;2023-07-13T04:06:25;98965.47;;;24.31;100.00
9672;BME280;4874;43.568;27.824;2023-07-13T04:08:55;98956.53;;;24.01;100.00
9672;BME280;4874;43.568;27.824;2023-07-13T04:11:24;98952.69;;;23.90;100.00
9672;BME280;4874;43.568;27.824;2023-07-13T04:13:51;98960.38;;;24.23;100.00
9672;BME280;4874;43.568;27.824;2023-07-13T04:16:19;98951.59;;;24.62;100.00
9672;BME280;4874;43.568;27.824;2023-07-13T04:18:47;98954.25;;;24.92;100.00
9672;BME280;4874;43.568;27.824;2023-07-13T04:21:15;98950.81;;;24.85;100.00
9672;BME280;4874;43.568;27.824;2023-07-13T04:23:42;98923.28;;;25.04;100.00
9672;BME280;4874;43.568;27.824;2023-07-13T04:26:09;98947.88;;;25.09;100.00
9672;BME280;4874;43.568;27.824;2023-07-13T04:28:36;98944.28;;;25.20;100.00
9672;BME280;4874;43.568;27.824;2023-07-13T04:31:03;98943.72;;;25.30;100.00
9672;BME280;4874;43.568;27.824;2023-07-13T04:33:30;98944.06;;;25.45;100.00
9672;BME280;4874;43.568;27.824;2023-07-13T04:35:57;98948.44;;;25.11;100.00
9672;BME280;4874;43.568;27.824;2023-07-13T04:38:28;98950.69;;;25.14;100.00
9672;BME280;4874;43.568;27.824;2023-07-13T04:40:56;98960.69;;;25.60;100.00
9672;BME280;4874;43.568;27.824;2023-07-13T04:43:24;98962.34;;;25.49;100.00
9672;BME280;4874;43.568;27.824;2023-07-13T04:45:52;98957.16;;;25.48;100.00
9672;BME280;4874;43.568;27.824;2023-07-13T04:48:20;98953.78;;;25.18;100.00
9672;BME280;4874;43.568;27.824;2023-07-13T04:50:47;98952.81;;;25.24;100.00
9672;BME280;4874;43.568;27.824;2023-07-13T04:53:14;98956.22;;;25.31;100.00
9672;BME280;4874;43.568;27.824;2023-07-13T04:55:40;98944.41;;;25.37;100.00
9672;BME280;4874;43.568;27.824;2023-07-13T04:58:07;98961.91;;;25.29;100.00
9672;BME280;4874;43.568;27.824;2023-07-13T05:00:34;98963.06;;;25.33;100.00
9672;BME280;4874;43.568;27.824;2023-07-13T05:03:03;98949.06;;;25.65;100.00
9672;BME280;4874;43.568;27.824;2023-07-13T05:05:29;98962.81;;;25.58;100.00
9672;BME280;4874;43.568;27.824;2023-07-13T05:07:56;98957.91;;;25.43;100.00
9672;BME280;4874;43.568;27.824;2023-07-13T05:10:23;98939.44;;;25.45;100.00
9672;BME280;4874;43.568;27.824;2023-07-13T05:12:50;98976.25;;;25.76;100.00
9672;BME280;4874;43.568;27.824;2023-07-13T05:15:22;98971.63;;;25.77;100.00
9672;BME280;4874;43.568;27.824;2023-07-13T05:17:49;98976.88;;;25.95;100.00
9672;BME280;4874;43.568;27.824;2023-07-13T05:20:17;98973.81;;;25.91;100.00
9672;BME280;4874;43.568;27.824;2023-07-13T05:22:44;98972.50;;;26.05;100.00
9672;BME280;4874;43.568;27.824;2023-07-13T05:25:13;98974.47;;;26.38;100.00
9672;BME280;4874;43.568;27.824;2023-07-13T05:27:40;98982.53;;;26.33;100.00
9672;BME280;4874;43.568;27.824;2023-07-13T05:30:07;98987.06;;;26.27;100.00
9672;BME280;4874;43.568;27.824;2023-07-13T05:32:37;98975.69;;;26.30;100.00
9672;BME280;4874;43.568;27.824;2023-07-13T05:35:05;98985.66;;;26.41;100.00
9672;BME280;4874;43.568;27.824;2023-07-13T05:37:33;98984.00;;;26.85;100.00
9672;BME280;4874;43.568;27.824;2023-07-13T05:39:59;98979.38;;;27.02;100.00
9672;BME280;4874;43.568;27.824;2023-07-13T05:42:26;98981.06;;;27.41;100.00
9672;BME280;4874;43.568;27.824;2023-07-13T05:44:53;98972.88;;;27.41;100.00
9672;BME280;4874;43.568;27.824;2023-07-13T05:47:20;98991.34;;;27.77;100.00
9672;BME280;4874;43.568;27.824;2023-07-13T05:49:47;98933.00;;;27.78;100.00
9672;BME280;4874;43.568;27.824;2023-07-13T05:52:13;98992.09;;;28.43;100.00
9672;BME280;4874;43.568;27.824;2023-07-13T05:54:42;98989.22;;;28.81;100.00
9672;BME280;4874;43.568;27.824;2023-07-13T05:57:09;98988.69;;;29.16;100.00
9672;BME280;4874;43.568;27.824;2023-07-13T05:59:36;98981.00;;;29.13;100.00
9672;BME280;4874;43.568;27.824;2023-07-13T06:02:03;98989.09;;;29.39;100.00
9672;BME280;4874;43.568;27.824;2023-07-13T06:04:30;98986.19;;;29.14;100.00
9672;BME280;4874;43.568;27.824;2023-07-13T06:06:57;98980.38;;;29.47;100.00
9672;BME280;4874;43.568;27.824;2023-07-13T06:09:23;98982.22;;;29.83;100.00
9672;BME280;4874;43.568;27.824;2023-07-13T06:11:50;98984.16;;;29.93;100.00
9672;BME280;4874;43.568;27.824;2023-07-13T06:14:17;98984.38;;;29.71;100.00
9672;BME280;4874;43.568;27.824;2023-07-13T06:16:44;98980.13;;;29.49;100.00
9672;BME280;4874;43.568;27.824;2023-07-13T06:19:11;98966.94;;;29.92;100.00
9672;BME280;4874;43.568;27.824;2023-07-13T06:21:37;98983.50;;;30.38;100.00
9672;BME280;4874;43.568;27.824;2023-07-13T06:24:04;98974.38;;;30.17;100.00
9672;BME280;4874;43.568;27.824;2023-07-13T06:26:31;98984.06;;;30.50;100.00
9672;BME280;4874;43.568;27.824;2023-07-13T06:28:58;98982.31;;;30.14;100.00
9672;BME280;4874;43.568;27.824;2023-07-13T06:31:25;98964.88;;;30.40;100.00
9672;BME280;4874;43.568;27.824;2023-07-13T06:33:52;98966.28;;;30.92;100.00
9672;BME280;4874;43.568;27.824;2023-07-13T06:36:18;98975.31;;;30.78;100.00
9672;BME280;4874;43.568;27.824;2023-07-13T06:38:45;98961.59;;;31.33;100.00
9672;BME280;4874;43.568;27.824;2023-07-13T06:41:12;98984.59;;;31.22;100.00
9672;BME280;4874;43.568;27.824;2023-07-13T06:43:39;98954.22;;;30.93;100.00
9672;BME280;4874;43.568;27.824;2023-07-13T06:46:06;98968.94;;;31.33;100.00
9672;BME280;4874;43.568;27.824;2023-07-13T06:48:34;98952.84;;;30.61;100.00
9672;BME280;4874;43.568;27.824;2023-07-13T06:51:02;98975.28;;;31.13;100.00
9672;BME280;4874;43.568;27.824;2023-07-13T06:53:29;98967.06;;;31.13;100.00
9672;BME280;4874;43.568;27.824;2023-07-13T06:55:56;98957.44;;;31.41;100.00
9672;BME280;4874;43.568;27.824;2023-07-13T06:58:23;98966.22;;;31.43;100.00
9672;BME280;4874;43.568;27.824;2023-07-13T07:00:52;98973.09;;;31.40;100.00
9672;BME280;4874;43.568;27.824;2023-07-13T07:03:20;98971.69;;;31.33;100.00
9672;BME280;4874;43.568;27.824;2023-07-13T07:05:48;98974.47;;;31.23;100.00
9672;BME280;4874;43.568;27.824;2023-07-13T07:08:14;98984.38;;;30.98;100.00
9672;BME280;4874;43.568;27.824;2023-07-13T07:10:41;98978.84;;;31.39;100.00
9672;BME280;4874;43.568;27.824;2023-07-13T07:13:08;98977.31;;;31.86;100.00
9672;BME280;4874;43.568;27.824;2023-07-13T07:15:35;98981.84;;;31.52;100.00
9672;BME280;4874;43.568;27.824;2023-07-13T07:18:03;98979.50;;;32.48;100.00
9672;BME280;4874;43.568;27.824;2023-07-13T07:20:30;98978.28;;;32.15;100.00
9672;BME280;4874;43.568;27.824;2023-07-13T07:22:57;98991.31;;;31.85;100.00
9672;BME280;4874;43.568;27.824;2023-07-13T07:25:24;98980.19;;;32.20;100.00
9672;BME280;4874;43.568;27.824;2023-07-13T07:27:51;98978.91;;;32.51;100.00
9672;BME280;4874;43.568;27.824;2023-07-13T07:30:20;98916.41;;;31.74;100.00
9672;BME280;4874;43.568;27.824;2023-07-13T07:32:50;98967.00;;;32.17;100.00
9672;BME280;4874;43.568;27.824;2023-07-13T07:35:20;98976.19;;;32.46;100.00
9672;BME280;4874;43.568;27.824;2023-07-13T07:37:46;98980.22;;;32.15;100.00
9672;BME280;4874;43.568;27.824;2023-07-13T07:40:15;98968.25;;;32.45;100.00
9672;BME280;4874;43.568;27.824;2023-07-13T07:42:45;98969.88;;;32.46;100.00
9672;BME280;4874;43.568;27.824;2023-07-13T07:45:12;98970.59;;;32.95;100.00
9672;BME280;4874;43.568;27.824;2023-07-13T07:47:40;98967.50;;;32.68;100.00
9672;BME280;4874;43.568;27.824;2023-07-13T07:50:08;98969.41;;;32.67;100.00
9672;BME280;4874;43.568;27.824;2023-07-13T07:52:35;98972.84;;;32.83;100.00
9672;BME280;4874;43.568;27.824;2023-07-13T07:55:06;98968.81;;;33.32;100.00
9672;BME280;4874;43.568;27.824;2023-07-13T07:57:36;98966.38;;;33.31;100.00
9672;BME280;4874;43.568;27.824;2023-07-13T08:00:06;98967.84;;;33.23;100.00
9672;BME280;4874;43.568;27.824;2023-07-13T08:02:36;98971.03;;;33.83;100.00
9672;BME280;4874;43.568;27.824;2023-07-13T08:05:07;98973.56;;;33.56;100.00
9672;BME280;4874;43.568;27.824;2023-07-13T08:07:38;98969.63;;;33.09;100.00
9672;BME280;4874;43.568;27.824;2023-07-13T08:10:06;98975.28;;;33.23;100.00
9672;BME280;4874;43.568;27.824;2023-07-13T08:12:37;98969.66;;;33.33;100.00
9672;BME280;4874;43.568;27.824;2023-07-13T08:15:10;98972.75;;;33.55;100.00
9672;BME280;4874;43.568;27.824;2023-07-13T08:17:41;98968.03;;;33.79;100.00
9672;BME280;4874;43.568;27.824;2023-07-13T08:20:08;98916.28;;;33.29;100.00
9672;BME280;4874;43.568;27.824;2023-07-13T08:22:38;98962.16;;;33.44;100.00
9672;BME280;4874;43.568;27.824;2023-07-13T08:25:05;98963.03;;;33.34;100.00
9672;BME280;4874;43.568;27.824;2023-07-13T08:27:32;98961.25;;;33.48;100.00
9672;BME280;4874;43.568;27.824;2023-07-13T08:29:59;98961.38;;;33.85;100.00
9672;BME280;4874;43.568;27.824;2023-07-13T08:32:26;98963.34;;;34.40;97.63
9672;BME280;4874;43.568;27.824;2023-07-13T08:34:53;98964.72;;;34.24;100.00
9672;BME280;4874;43.568;27.824;2023-07-13T08:37:20;98959.53;;;33.76;100.00
9672;BME280;4874;43.568;27.824;2023-07-13T08:39:47;98960.81;;;34.25;95.63
9672;BME280;4874;43.568;27.824;2023-07-13T08:42:33;98967.00;;;34.36;96.32
9672;BME280;4874;43.568;27.824;2023-07-13T08:47:35;98946.69;;;34.51;96.60
9672;BME280;4874;43.568;27.824;2023-07-13T08:50:04;98944.13;;;34.73;93.51
9672;BME280;4874;43.568;27.824;2023-07-13T08:52:49;98966.31;;;34.81;92.29
9672;BME280;4874;43.568;27.824;2023-07-13T08:55:34;98929.84;;;34.52;93.88
9672;BME280;4874;43.568;27.824;2023-07-13T08:58:15;98962.13;;;34.52;92.99
9672;BME280;4874;43.568;27.824;2023-07-13T09:01:06;98970.22;;;34.62;90.30
9672;BME280;4874;43.568;27.824;2023-07-13T09:03:41;98966.41;;;34.58;88.48
9672;BME280;4874;43.568;27.824;2023-07-13T09:06:12;98968.38;;;35.35;82.52
9672;BME280;4874;43.568;27.824;2023-07-13T09:09:15;98962.28;;;34.92;87.66
9672;BME280;4874;43.568;27.824;2023-07-13T09:14:38;98956.00;;;34.87;85.87
9672;BME280;4874;43.568;27.824;2023-07-13T09:17:15;98963.94;;;34.93;84.79
9672;BME280;4874;43.568;27.824;2023-07-13T09:19:51;98958.03;;;35.00;84.78
9672;BME280;4874;43.568;27.824;2023-07-13T09:22:21;98950.34;;;34.78;84.48
9672;BME280;4874;43.568;27.824;2023-07-13T09:25:00;98963.88;;;35.12;84.73
9672;BME280;4874;43.568;27.824;2023-07-13T09:27:33;98964.94;;;34.97;82.99
9672;BME280;4874;43.568;27.824;2023-07-13T09:30:23;98941.00;;;35.52;77.00
9672;BME280;4874;43.568;27.824;2023-07-13T09:32:53;98955.59;;;35.12;79.91
9672;BME280;4874;43.568;27.824;2023-07-13T09:35:26;98944.84;;;34.97;80.07
9672;BME280;4874;43.568;27.824;2023-07-13T09:38:16;98955.50;;;35.17;80.08
9672;BME280;4874;43.568;27.824;2023-07-13T09:43:16;98944.66;;;35.20;81.30
9672;BME280;4874;43.568;27.824;2023-07-13T09:45:46;98938.00;;;35.21;80.19
9672;BME280;4874;43.568;27.824;2023-07-13T09:48:15;98936.00;;;35.68;78.46
9672;BME280;4874;43.568;27.824;2023-07-13T09:50:42;98917.06;;;35.20;80.83
9672;BME280;4874;43.568;27.824;2023-07-13T09:53:16;98927.50;;;35.64;79.59
9672;BME280;4874;43.568;27.824;2023-07-13T09:55:45;98927.50;;;35.50;78.81
9672;BME280;4874;43.568;27.824;2023-07-13T09:58:19;98915.94;;;35.62;75.95
9672;BME280;4874;43.568;27.824;2023-07-13T10:01:00;98908.03;;;35.15;75.83
9672;BME280;4874;43.568;27.824;2023-07-13T10:03:34;98909.31;;;35.63;77.13
9672;BME280;4874;43.568;27.824;2023-07-13T10:06:17;98912.56;;;35.79;76.16
9672;BME280;4874;43.568;27.824;2023-07-13T10:08:45;98880.81;;;35.76;77.10
9672;BME280;4874;43.568;27.824;2023-07-13T10:11:27;98897.22;;;35.32;77.36
9672;BME280;4874;43.568;27.824;2023-07-13T10:14:00;98877.88;;;35.73;75.86
9672;BME280;4874;43.568;27.824;2023-07-13T10:16:32;98901.72;;;35.69;73.88
9672;BME280;4874;43.568;27.824;2023-07-13T10:19:04;98878.16;;;35.85;74.84
9672;BME280;4874;43.568;27.824;2023-07-13T10:21:36;98890.19;;;35.53;77.46
9672;BME280;4874;43.568;27.824;2023-07-13T10:24:25;98896.94;;;35.88;75.67
9672;BME280;4874;43.568;27.824;2023-07-13T10:27:18;98900.81;;;35.60;74.39
9672;BME280;4874;43.568;27.824;2023-07-13T10:32:30;98882.97;;;36.28;75.31
9672;BME280;4874;43.568;27.824;2023-07-13T10:34:57;98889.59;;;36.05;68.46
9672;BME280;4874;43.568;27.824;2023-07-13T10:37:32;98879.03;;;36.07;67.87
9672;BME280;4874;43.568;27.824;2023-07-13T10:40:05;98883.69;;;35.85;72.06
9672;BME280;4874;43.568;27.824;2023-07-13T10:42:37;98856.50;;;35.37;66.37
9672;BME280;4874;43.568;27.824;2023-07-13T10:45:20;98874.31;;;35.72;68.90
9672;BME280;4874;43.568;27.824;2023-07-13T10:47:48;98856.97;;;35.80;63.94
9672;BME280;4874;43.568;27.824;2023-07-13T10:50:24;98880.97;;;36.07;64.36
9672;BME280;4874;43.568;27.824;2023-07-13T10:52:54;98899.84;;;36.40;65.47
9672;BME280;4874;43.568;27.824;2023-07-13T10:58:20;98886.59;;;36.51;63.24
9672;BME280;4874;43.568;27.824;2023-07-13T11:03:26;98890.28;;;36.46;64.20
9672;BME280;4874;43.568;27.824;2023-07-13T11:08:53;98883.25;;;36.05;61.80
9672;BME280;4874;43.568;27.824;2023-07-13T11:13:59;98894.69;;;36.70;63.09
9672;BME280;4874;43.568;27.824;2023-07-13T11:16:44;98892.53;;;36.44;61.86
9672;BME280;4874;43.568;27.824;2023-07-13T11:24:57;98882.84;;;36.33;62.06
9672;BME280;4874;43.568;27.824;2023-07-13T11:27:35;98895.94;;;36.41;62.98
9672;BME280;4874;43.568;27.824;2023-07-13T11:30:21;98897.31;;;36.30;62.67
9672;BME280;4874;43.568;27.824;2023-07-13T11:32:52;98881.59;;;36.61;61.25
9672;BME280;4874;43.568;27.824;2023-07-13T11:35:35;98883.22;;;36.18;61.97
9672;BME280;4874;43.568;27.824;2023-07-13T11:38:12;98876.19;;;36.56;62.00
9672;BME280;4874;43.568;27.824;2023-07-13T11:40:41;98859.59;;;36.56;62.11
9672;BME280;4874;43.568;27.824;2023-07-13T11:43:13;98868.78;;;36.43;60.99
9672;BME280;4874;43.568;27.824;2023-07-13T11:45:41;98869.41;;;36.85;62.21
9672;BME280;4874;43.568;27.824;2023-07-13T11:48:20;98871.53;;;36.88;59.50
9672;BME280;4874;43.568;27.824;2023-07-13T11:51:06;98869.50;;;36.80;59.92
9672;BME280;4874;43.568;27.824;2023-07-13T11:53:45;98878.03;;;36.83;59.74
9672;BME280;4874;43.568;27.824;2023-07-13T11:56:13;98873.91;;;36.81;59.97
9672;BME280;4874;43.568;27.824;2023-07-13T11:58:40;98864.69;;;36.85;60.47
9672;BME280;4874;43.568;27.824;2023-07-13T12:01:29;98842.59;;;36.94;59.63
9672;BME280;4874;43.568;27.824;2023-07-13T12:04:03;98863.47;;;36.78;58.28
9672;BME280;4874;43.568;27.824;2023-07-13T12:06:32;98851.91;;;37.06;57.50
9672;BME280;4874;43.568;27.824;2023-07-13T12:09:02;98853.84;;;37.36;55.86
9672;BME280;4874;43.568;27.824;2023-07-13T12:11:30;98848.47;;;36.48;56.30
9672;BME280;4874;43.568;27.824;2023-07-13T12:14:01;98835.22;;;36.89;56.24
9672;BME280;4874;43.568;27.824;2023-07-13T12:16:30;98819.16;;;37.08;56.76
9672;BME280;4874;43.568;27.824;2023-07-13T12:19:00;98824.50;;;36.96;56.90
9672;BME280;4874;43.568;27.824;2023-07-13T12:21:33;98811.38;;;37.10;56.47
9672;BME280;4874;43.568;27.824;2023-07-13T12:24:01;98788.53;;;37.05;58.27
9672;BME280;4874;43.568;27.824;2023-07-13T12:26:31;98807.56;;;37.37;56.87
9672;BME280;4874;43.568;27.824;2023-07-13T12:29:00;98809.84;;;37.35;58.87
9672;BME280;4874;43.568;27.824;2023-07-13T12:31:40;98798.75;;;37.35;57.86
9672;BME280;4874;43.568;27.824;2023-07-13T12:34:08;98797.72;;;37.22;58.39
9672;BME280;4874;43.568;27.824;2023-07-13T12:36:38;98758.22;;;36.60;58.38
9672;BME280;4874;43.568;27.824;2023-07-13T12:41:52;98782.25;;;36.82;58.94
9672;BME280;4874;43.568;27.824;2023-07-13T12:44:31;98773.88;;;36.96;58.74
9672;BME280;4874;43.568;27.824;2023-07-13T12:47:04;98775.69;;;37.09;58.52
9672;BME280;4874;43.568;27.824;2023-07-13T12:49:33;98777.50;;;37.22;57.73
9672;BME280;4874;43.568;27.824;2023-07-13T12:52:03;98774.38;;;37.06;56.83
9672;BME280;4874;43.568;27.824;2023-07-13T12:54:31;98771.34;;;37.25;57.39
9672;BME280;4874;43.568;27.824;2023-07-13T12:56:59;98768.44;;;37.30;59.07
9672;BME280;4874;43.568;27.824;2023-07-13T12:59:30;98776.09;;;37.33;61.20
9672;BME280;4874;43.568;27.824;2023-07-13T13:01:59;98768.84;;;37.15;58.48
9672;BME280;4874;43.568;27.824;2023-07-13T13:04:27;98777.81;;;37.12;60.39
9672;BME280;4874;43.568;27.824;2023-07-13T13:07:02;98773.91;;;36.74;60.89
9672;BME280;4874;43.568;27.824;2023-07-13T13:09:30;98773.97;;;36.82;58.86
9672;BME280;4874;43.568;27.824;2023-07-13T13:11:57;98763.97;;;36.73;60.82
9672;BME280;4874;43.568;27.824;2023-07-13T13:14:24;98727.84;;;36.78;59.57
9672;BME280;4874;43.568;27.824;2023-07-13T13:16:52;98763.91;;;36.95;56.81
9672;BME280;4874;43.568;27.824;2023-07-13T13:19:23;98728.81;;;36.73;59.45
9672;BME280;4874;43.568;27.824;2023-07-13T13:21:54;98768.66;;;37.03;58.46
9672;BME280;4874;43.568;27.824;2023-07-13T13:24:26;98775.47;;;36.88;59.24
9672;BME280;4874;43.568;27.824;2023-07-13T13:26:54;98768.25;;;36.79;59.25
9672;BME280;4874;43.568;27.824;2023-07-13T13:29:24;98774.38;;;37.06;60.32
9672;BME280;4874;43.568;27.824;2023-07-13T13:31:52;98776.50;;;37.01;58.45
9672;BME280;4874;43.568;27.824;2023-07-13T13:34:36;98771.09;;;37.52;58.38
9672;BME280;4874;43.568;27.824;2023-07-13T13:37:43;98769.16;;;37.05;60.08
9672;BME280;4874;43.568;27.824;2023-07-13T13:40:02;98767.81;;;37.33;60.02
9672;BME280;4874;43.568;27.824;2023-07-13T13:42:34;98760.84;;;37.05;60.21
9672;BME280;4874;43.568;27.824;2023-07-13T13:45:01;98759.00;;;36.83;57.95
9672;BME280;4874;43.568;27.824;2023-07-13T13:47:32;98758.28;;;36.78;58.99